<?xml version="1.0" encoding="UTF-8" standalone="no" ?><gpx xmlns="http://www.topografix.com/GPX/1/1" xmlns:gpxx="http://www.garmin.com/xmlschemas/GpxExtensions/v3" xmlns:wptx1="http://www.garmin.com/xmlschemas/WaypointExtension/v1" xmlns:gpxtpx="http://www.garmin.com/xmlschemas/TrackPointExtension/v1" creator="eTrex 30" version="1.1" xmlns:xsi="http://www.w3.org/2001/XMLSchema-instance" xsi:schemaLocation="http://www.topografix.com/GPX/1/1 http://www.topografix.com/GPX/1/1/gpx.xsd http://www.garmin.com/xmlschemas/GpxExtensions/v3 http://www8.garmin.com/xmlschemas/GpxExtensionsv3.xsd http://www.garmin.com/xmlschemas/WaypointExtension/v1 http://www8.garmin.com/xmlschemas/WaypointExtensionv1.xsd http://www.garmin.com/xmlschemas/TrackPointExtension/v1 http://www.garmin.com/xmlschemas/TrackPointExtensionv1.xsd"><metadata><link href="http://www.garmin.com"><text>Garmin International</text></link><time>2013-07-17T12:36:37Z</time></metadata><trk><name>NUEVO LOTE</name><extensions><gpxx:TrackExtension><gpxx:DisplayColor>Black</gpxx:DisplayColor></gpxx:TrackExtension></extensions><trkseg><trkpt lat="5.3221230302" lon="-72.2839827184"><ele>243.35</ele><time>2013-07-17T11:20:24Z</time></trkpt><trkpt lat="5.3221221920" lon="-72.2839825507"><ele>243.83</ele><time>2013-07-17T11:20:25Z</time></trkpt><trkpt lat="5.3221280593" lon="-72.2839864064"><ele>243.35</ele><time>2013-07-17T11:20:30Z</time></trkpt><trkpt lat="5.3220864013" lon="-72.2839523759"><ele>243.35</ele><time>2013-07-17T11:20:35Z</time></trkpt><trkpt lat="5.3220409714" lon="-72.2839124780"><ele>243.35</ele><time>2013-07-17T11:20:40Z</time></trkpt><trkpt lat="5.3219952900" lon="-72.2838711552"><ele>243.35</ele><time>2013-07-17T11:20:45Z</time></trkpt><trkpt lat="5.3219504468" lon="-72.2838393878"><ele>242.87</ele><time>2013-07-17T11:20:50Z</time></trkpt><trkpt lat="5.3219064418" lon="-72.2838028427"><ele>242.39</ele><time>2013-07-17T11:20:55Z</time></trkpt><trkpt lat="5.3218653705" lon="-72.2837629449"><ele>242.39</ele><time>2013-07-17T11:21:00Z</time></trkpt><trkpt lat="5.3218501993" lon="-72.2837253101"><ele>242.39</ele><time>2013-07-17T11:21:05Z</time></trkpt><trkpt lat="5.3218340222" lon="-72.2836894356"><ele>242.39</ele><time>2013-07-17T11:21:10Z</time></trkpt><trkpt lat="5.3218335193" lon="-72.2836427484"><ele>242.39</ele><time>2013-07-17T11:21:15Z</time></trkpt><trkpt lat="5.3218305018" lon="-72.2835992463"><ele>242.39</ele><time>2013-07-17T11:21:20Z</time></trkpt><trkpt lat="5.3218209464" lon="-72.2835574206"><ele>242.39</ele><time>2013-07-17T11:21:25Z</time></trkpt><trkpt lat="5.3217971418" lon="-72.2835041117"><ele>242.39</ele><time>2013-07-17T11:21:30Z</time></trkpt><trkpt lat="5.3217724990" lon="-72.2834534850"><ele>242.39</ele><time>2013-07-17T11:21:35Z</time></trkpt><trkpt lat="5.3217766900" lon="-72.2834036127"><ele>241.91</ele><time>2013-07-17T11:21:40Z</time></trkpt><trkpt lat="5.3217879217" lon="-72.2833563387"><ele>242.39</ele><time>2013-07-17T11:21:45Z</time></trkpt><trkpt lat="5.3217740078" lon="-72.2833150160"><ele>242.39</ele><time>2013-07-17T11:21:50Z</time></trkpt><trkpt lat="5.3217769414" lon="-72.2832655627"><ele>242.39</ele><time>2013-07-17T11:21:55Z</time></trkpt><trkpt lat="5.3217657935" lon="-72.2832150199"><ele>242.39</ele><time>2013-07-17T11:22:00Z</time></trkpt><trkpt lat="5.3217464313" lon="-72.2831653990"><ele>242.39</ele><time>2013-07-17T11:22:05Z</time></trkpt><trkpt lat="5.3217393067" lon="-72.2831194662"><ele>242.39</ele><time>2013-07-17T11:22:10Z</time></trkpt><trkpt lat="5.3217730857" lon="-72.2831319552"><ele>242.39</ele><time>2013-07-17T11:22:15Z</time></trkpt><trkpt lat="5.3218154144" lon="-72.2831689194"><ele>242.39</ele><time>2013-07-17T11:22:20Z</time></trkpt><trkpt lat="5.3218595870" lon="-72.2832032014"><ele>242.39</ele><time>2013-07-17T11:22:25Z</time></trkpt><trkpt lat="5.3218987305" lon="-72.2832472064"><ele>242.39</ele><time>2013-07-17T11:22:30Z</time></trkpt><trkpt lat="5.3219302464" lon="-72.2832996771"><ele>242.39</ele><time>2013-07-17T11:22:35Z</time></trkpt><trkpt lat="5.3219731618" lon="-72.2833426762"><ele>242.87</ele><time>2013-07-17T11:22:40Z</time></trkpt><trkpt lat="5.3220216092" lon="-72.2833701689"><ele>242.87</ele><time>2013-07-17T11:22:45Z</time></trkpt><trkpt lat="5.3220630158" lon="-72.2834095638"><ele>242.87</ele><time>2013-07-17T11:22:50Z</time></trkpt><trkpt lat="5.3221082781" lon="-72.2834455222"><ele>242.87</ele><time>2013-07-17T11:22:55Z</time></trkpt><trkpt lat="5.3221481759" lon="-72.2834824026"><ele>242.87</ele><time>2013-07-17T11:23:00Z</time></trkpt><trkpt lat="5.3221926838" lon="-72.2835184447"><ele>242.87</ele><time>2013-07-17T11:23:05Z</time></trkpt><trkpt lat="5.3222383652" lon="-72.2835580073"><ele>242.87</ele><time>2013-07-17T11:23:10Z</time></trkpt><trkpt lat="5.3222785145" lon="-72.2836022638"><ele>242.87</ele><time>2013-07-17T11:23:15Z</time></trkpt><trkpt lat="5.3223060910" lon="-72.2836532257"><ele>242.87</ele><time>2013-07-17T11:23:20Z</time></trkpt><trkpt lat="5.3223366011" lon="-72.2837064508"><ele>243.35</ele><time>2013-07-17T11:23:25Z</time></trkpt><trkpt lat="5.3223630879" lon="-72.2837604303"><ele>242.87</ele><time>2013-07-17T11:23:30Z</time></trkpt><trkpt lat="5.3223875631" lon="-72.2838084586"><ele>242.87</ele><time>2013-07-17T11:23:35Z</time></trkpt><trkpt lat="5.3224102780" lon="-72.2838614322"><ele>242.87</ele><time>2013-07-17T11:23:40Z</time></trkpt><trkpt lat="5.3224024829" lon="-72.2839116398"><ele>242.87</ele><time>2013-07-17T11:23:45Z</time></trkpt><trkpt lat="5.3223608248" lon="-72.2839468438"><ele>242.87</ele><time>2013-07-17T11:23:50Z</time></trkpt><trkpt lat="5.3223117907" lon="-72.2839452513"><ele>243.35</ele><time>2013-07-17T11:23:55Z</time></trkpt><trkpt lat="5.3222601581" lon="-72.2839538008"><ele>242.87</ele><time>2013-07-17T11:24:00Z</time></trkpt><trkpt lat="5.3222153150" lon="-72.2839629371"><ele>242.87</ele><time>2013-07-17T11:24:05Z</time></trkpt><trkpt lat="5.3221675381" lon="-72.2839711513"><ele>243.35</ele><time>2013-07-17T11:24:10Z</time></trkpt><trkpt lat="5.3221255448" lon="-72.2839765158"><ele>243.35</ele><time>2013-07-17T11:24:15Z</time></trkpt><trkpt lat="5.3221226111" lon="-72.2839788627"><ele>243.35</ele><time>2013-07-17T11:24:19Z</time></trkpt></trkseg></trk></gpx>